createdAt,value
2023-05-04T00:01:01.106Z,6.33
2023-05-04T00:03:28.851Z,5.94
2023-05-04T00:05:56.923Z,5.94
2023-05-04T00:08:24.742Z,6.27
2023-05-04T00:10:54.418Z,6.11
2023-05-04T00:13:22.132Z,6.36
2023-05-04T00:15:49.759Z,6.24
2023-05-04T00:18:17.435Z,6.39
2023-05-04T00:20:45.244Z,6.30
2023-05-04T00:23:12.855Z,6.75
2023-05-04T00:25:40.524Z,7.04
2023-05-04T00:28:09.515Z,6.92
2023-05-04T00:30:37.297Z,6.41
2023-05-04T00:33:05.020Z,6.17
2023-05-04T00:35:32.680Z,5.67
2023-05-04T00:38:00.281Z,6.36
2023-05-04T00:40:27.910Z,6.65
2023-05-04T00:42:55.604Z,6.75
2023-05-04T00:45:24.643Z,7.03
2023-05-04T00:47:52.513Z,7.06
2023-05-04T00:50:21.115Z,6.80
2023-05-04T00:52:50.078Z,6.31
2023-05-04T00:55:17.945Z,6.42
2023-05-04T00:57:45.737Z,6.13
2023-05-04T01:00:14.174Z,6.48
2023-05-04T01:02:43.372Z,6.59
2023-05-04T01:05:13.439Z,6.86
2023-05-04T01:07:48.856Z,6.87
2023-05-04T01:10:21.121Z,6.85
2023-05-04T01:12:53.110Z,6.89
2023-05-04T01:15:21.678Z,6.98
2023-05-04T01:17:50.691Z,6.98
2023-05-04T01:20:18.372Z,7.07
2023-05-04T01:22:47.785Z,7.01
2023-05-04T01:25:16.273Z,7.13
2023-05-04T01:27:47.857Z,7.02
2023-05-04T01:30:19.927Z,7.12
2023-05-04T01:32:48.703Z,7.11
2023-05-04T01:35:17.130Z,6.90
2023-05-04T01:37:44.835Z,7.10
2023-05-04T01:40:14.261Z,7.06
2023-05-04T01:42:41.904Z,7.17
2023-05-04T01:45:10.932Z,7.11
2023-05-04T01:47:38.763Z,7.34
2023-05-04T01:50:07.370Z,7.47
2023-05-04T01:52:34.997Z,7.24
2023-05-04T01:55:02.699Z,7.63
2023-05-04T01:57:31.730Z,7.63
2023-05-04T01:59:59.479Z,7.99
2023-05-04T02:02:27.184Z,8.15
2023-05-04T02:04:54.857Z,7.97
2023-05-04T02:07:22.529Z,8.32
2023-05-04T02:09:50.174Z,7.92
2023-05-04T02:12:17.794Z,8.08
2023-05-04T02:14:46.920Z,8.11
2023-05-04T02:17:14.545Z,8.25
2023-05-04T02:19:42.157Z,8.22
2023-05-04T02:22:09.947Z,8.13
2023-05-04T02:24:37.582Z,8.30
2023-05-04T02:27:05.293Z,8.13
2023-05-04T02:29:32.896Z,7.97
2023-05-04T02:32:01.965Z,7.96
2023-05-04T02:34:31.405Z,8.22
2023-05-04T02:36:59.047Z,8.08
2023-05-04T02:39:26.675Z,8.21
2023-05-04T02:41:54.300Z,8.27
2023-05-04T02:44:21.994Z,7.96
2023-05-04T02:46:49.700Z,8.25
2023-05-04T02:49:18.678Z,8.39
2023-05-04T02:51:47.355Z,8.26
2023-05-04T02:54:15.068Z,8.31
2023-05-04T02:56:42.725Z,8.45
2023-05-04T02:59:10.350Z,8.30
2023-05-04T03:01:38.036Z,7.99
2023-05-04T03:04:06.839Z,8.08
2023-05-04T03:06:36.202Z,8.33
2023-05-04T03:09:04.425Z,8.44
2023-05-04T03:11:32.080Z,8.00
2023-05-04T03:13:59.682Z,7.91
2023-05-04T03:16:27.323Z,7.88
2023-05-04T03:18:57.805Z,7.98
2023-05-04T03:21:25.492Z,8.21
2023-05-04T03:23:54.448Z,7.83
2023-05-04T03:26:22.238Z,7.75
2023-05-04T03:28:49.908Z,7.63
2023-05-04T03:31:17.562Z,7.69
2023-05-04T03:33:45.350Z,7.90
2023-05-04T03:36:12.947Z,8.14
2023-05-04T03:38:41.676Z,7.99
2023-05-04T03:41:11.621Z,8.10
2023-05-04T03:43:39.356Z,8.16
2023-05-04T03:46:07.128Z,7.99
2023-05-04T03:48:34.813Z,7.90
2023-05-04T03:51:02.819Z,7.68
2023-05-04T03:53:31.028Z,8.01
2023-05-04T03:55:58.643Z,8.44
2023-05-04T03:58:27.812Z,8.02
2023-05-04T04:00:55.441Z,8.06
2023-05-04T04:03:23.265Z,8.14
2023-05-04T04:05:51.294Z,8.27
2023-05-04T04:08:18.929Z,8.78
2023-05-04T04:10:46.578Z,8.52
2023-05-04T04:13:14.438Z,8.19
2023-05-04T04:15:45.589Z,8.38
2023-05-04T04:18:13.342Z,8.38
2023-05-04T04:20:41.024Z,8.78
2023-05-04T04:23:08.826Z,8.47
2023-05-04T04:25:36.526Z,8.91
2023-05-04T04:28:04.473Z,8.89
2023-05-04T04:30:32.069Z,8.61
2023-05-04T04:33:01.053Z,9.10
2023-05-04T04:35:28.750Z,9.24
2023-05-04T04:37:56.430Z,9.45
2023-05-04T04:40:24.064Z,9.55
2023-05-04T04:42:52.356Z,9.03
2023-05-04T04:45:20.470Z,9.38
2023-05-04T04:47:48.280Z,9.48
2023-05-04T04:50:17.488Z,8.89
2023-05-04T04:52:45.109Z,9.68
2023-05-04T04:55:13.217Z,9.43
2023-05-04T04:57:40.936Z,10.30
2023-05-04T05:00:10.405Z,10.22
2023-05-04T05:02:38.426Z,11.32
2023-05-04T05:05:07.018Z,12.45
2023-05-04T05:07:36.581Z,12.26
2023-05-04T05:10:05.116Z,12.59
2023-05-04T05:12:32.997Z,12.63
2023-05-04T05:15:00.696Z,12.85
2023-05-04T05:17:28.762Z,13.22
2023-05-04T05:19:56.391Z,14.16
2023-05-04T05:22:24.016Z,12.74
2023-05-04T05:24:53.053Z,13.74
2023-05-04T05:27:20.677Z,14.94
2023-05-04T05:29:48.293Z,14.16
2023-05-04T05:32:15.955Z,13.77
2023-05-04T05:34:43.565Z,15.95
2023-05-04T05:37:11.201Z,15.28
2023-05-04T05:39:38.804Z,14.10
2023-05-04T05:42:07.788Z,15.16
2023-05-04T05:44:37.334Z,13.76
2023-05-04T05:47:05.009Z,12.99
2023-05-04T05:49:32.932Z,12.51
2023-05-04T05:52:00.548Z,13.60
2023-05-04T05:54:28.458Z,13.68
2023-05-04T05:56:56.121Z,14.39
2023-05-04T05:59:25.153Z,14.09
2023-05-04T06:01:53.081Z,14.10
2023-05-04T06:04:20.884Z,15.40
2023-05-04T06:06:48.587Z,14.93
2023-05-04T06:09:16.893Z,16.08
2023-05-04T06:11:44.532Z,16.11
2023-05-04T06:14:12.178Z,15.22
2023-05-04T06:16:41.378Z,15.78
2023-05-04T06:19:09.109Z,13.92
2023-05-04T06:21:36.915Z,14.14
2023-05-04T06:24:04.853Z,14.95
2023-05-04T06:26:32.504Z,15.93
2023-05-04T06:29:00.436Z,14.75
2023-05-04T06:31:28.688Z,16.13
2023-05-04T06:33:57.974Z,14.67
2023-05-04T06:36:26.664Z,15.71
2023-05-04T06:38:55.572Z,18.91
2023-05-04T06:41:23.438Z,18.80
2023-05-04T06:43:51.119Z,17.56
2023-05-04T06:46:19.187Z,15.92
2023-05-04T06:48:46.924Z,15.52
2023-05-04T06:51:16.579Z,16.63
2023-05-04T06:53:44.344Z,17.27
2023-05-04T06:56:12.391Z,16.07
2023-05-04T06:58:40.074Z,16.01
2023-05-04T07:01:14.529Z,15.58
2023-05-04T07:03:43.919Z,15.43
2023-05-04T07:06:11.576Z,15.20
2023-05-04T07:08:40.598Z,14.80
2023-05-04T07:11:10.374Z,15.77
2023-05-04T07:13:39.331Z,15.81
2023-05-04T07:16:08.639Z,16.39
2023-05-04T07:18:36.552Z,16.70
2023-05-04T07:21:22.041Z,17.44
2023-05-04T07:23:54.989Z,16.34
2023-05-04T07:26:22.859Z,16.62
2023-05-04T07:28:50.584Z,16.90
2023-05-04T07:31:18.293Z,17.19
2023-05-04T07:33:46.111Z,19.31
2023-05-04T07:36:13.755Z,18.81
2023-05-04T07:38:41.695Z,18.29
2023-05-04T07:41:10.718Z,18.82
2023-05-04T07:43:38.483Z,20.07
2023-05-04T07:46:06.421Z,18.46
2023-05-04T07:48:37.650Z,16.77
2023-05-04T07:51:05.719Z,18.19
2023-05-04T07:53:34.062Z,16.00
2023-05-04T07:56:11.226Z,18.06
2023-05-04T07:58:38.989Z,17.10
2023-05-04T08:01:06.880Z,16.50
2023-05-04T08:03:34.539Z,18.14
2023-05-04T08:06:02.286Z,18.15
2023-05-04T08:08:30.026Z,17.05
2023-05-04T08:11:11.690Z,17.38
2023-05-04T08:13:48.325Z,19.10
2023-05-04T08:16:16.301Z,19.36
2023-05-04T08:18:44.022Z,18.76
2023-05-04T08:21:11.841Z,18.89
2023-05-04T08:23:39.588Z,17.74
2023-05-04T08:26:07.252Z,17.41
2023-05-04T08:28:37.606Z,17.32
2023-05-04T08:31:07.762Z,17.32
2023-05-04T08:33:35.917Z,17.42
2023-05-04T08:36:04.595Z,16.36
2023-05-04T08:38:32.553Z,16.88
2023-05-04T08:41:03.150Z,17.50
2023-05-04T08:43:31.042Z,17.33
2023-05-04T08:45:58.792Z,18.80
2023-05-04T08:48:27.955Z,18.76
2023-05-04T08:50:56.188Z,18.99
2023-05-04T08:53:24.371Z,20.50
2023-05-04T08:55:56.041Z,18.87
2023-05-04T08:58:26.031Z,19.39
2023-05-04T09:00:54.012Z,20.57
2023-05-04T09:03:22.186Z,19.45
2023-05-04T09:05:52.610Z,17.77
2023-05-04T09:08:21.018Z,17.39
2023-05-04T09:10:48.707Z,17.03
2023-05-04T09:13:16.415Z,16.72
2023-05-04T09:15:44.178Z,17.88
2023-05-04T09:18:11.994Z,16.77
2023-05-04T09:20:47.133Z,17.16
2023-05-04T09:23:18.038Z,16.46
2023-05-04T09:25:49.759Z,16.79
2023-05-04T09:28:19.109Z,15.81
2023-05-04T09:30:48.369Z,16.39
2023-05-04T09:33:16.534Z,16.97
2023-05-04T09:35:45.332Z,17.11
2023-05-04T09:38:13.044Z,17.01
2023-05-04T09:40:43.339Z,17.14
2023-05-04T09:43:13.377Z,17.15
2023-05-04T09:45:44.647Z,16.72
2023-05-04T09:48:25.596Z,17.71
2023-05-04T09:50:54.726Z,17.56
2023-05-04T09:53:24.806Z,17.55
2023-05-04T09:56:07.317Z,18.00
2023-05-04T09:58:36.353Z,17.49
2023-05-04T10:01:04.670Z,17.79
2023-05-04T10:03:33.199Z,18.55
2023-05-04T10:06:04.131Z,17.59
2023-05-04T10:08:33.656Z,17.10
2023-05-04T10:11:02.819Z,17.16
2023-05-04T10:13:30.562Z,17.75
2023-05-04T10:16:12.792Z,17.21
2023-05-04T10:19:01.424Z,17.35
2023-05-04T10:21:34.274Z,17.09
2023-05-04T10:24:30.539Z,17.55
2023-05-04T10:27:11.780Z,17.43
2023-05-04T10:29:40.584Z,17.85
2023-05-04T10:32:18.999Z,18.28
2023-05-04T10:34:46.857Z,18.19
2023-05-04T10:37:18.477Z,18.70
2023-05-04T10:39:52.677Z,18.05
2023-05-04T10:42:22.856Z,18.77
2023-05-04T10:44:52.514Z,18.68
2023-05-04T10:47:29.179Z,19.37
2023-05-04T10:50:04.650Z,19.26
2023-05-04T10:52:33.313Z,19.59
2023-05-04T10:55:02.063Z,19.31
2023-05-04T10:57:31.368Z,17.04
2023-05-04T10:59:59.838Z,17.80
2023-05-04T11:02:30.462Z,18.54
2023-05-04T11:05:04.218Z,17.88
2023-05-04T11:07:37.641Z,19.48
2023-05-04T11:10:06.511Z,17.92
2023-05-04T11:12:36.135Z,18.48
2023-05-04T11:15:08.781Z,19.61
2023-05-04T11:17:46.438Z,17.89
2023-05-04T11:20:21.572Z,18.93
2023-05-04T11:22:49.575Z,17.49
2023-05-04T11:25:17.955Z,17.65
2023-05-04T11:27:50.066Z,18.00
2023-05-04T11:30:18.113Z,17.72
2023-05-04T11:32:46.884Z,18.76
2023-05-04T11:35:17.942Z,17.23
2023-05-04T11:37:46.866Z,19.15
2023-05-04T11:40:16.467Z,19.15
2023-05-04T11:42:44.757Z,18.44
2023-05-04T11:45:18.196Z,19.98
2023-05-04T11:47:47.172Z,20.05
2023-05-04T11:50:17.162Z,18.72
2023-05-04T11:52:45.662Z,18.76
2023-05-04T11:55:25.120Z,18.64
2023-05-04T11:57:57.880Z,18.60
2023-05-04T12:00:38.791Z,19.92
2023-05-04T12:03:07.524Z,19.58
2023-05-04T12:05:35.988Z,19.12
2023-05-04T12:08:04.558Z,18.79
2023-05-04T12:10:34.833Z,18.52
2023-05-04T12:13:02.698Z,18.73
2023-05-04T12:15:32.424Z,18.68
2023-05-04T12:18:03.013Z,19.04
2023-05-04T12:20:31.793Z,19.13
2023-05-04T12:23:06.860Z,19.02
2023-05-04T12:25:39.124Z,18.43
2023-05-04T12:28:12.026Z,18.43
2023-05-04T12:30:39.698Z,19.02
2023-05-04T12:33:08.778Z,19.12
2023-05-04T12:35:36.720Z,18.62
2023-05-04T12:38:04.360Z,18.41
2023-05-04T12:40:32.176Z,19.82
2023-05-04T12:42:59.818Z,19.80
2023-05-04T12:45:27.462Z,19.49
2023-05-04T12:47:55.111Z,19.26
2023-05-04T12:50:24.366Z,19.84
2023-05-04T12:52:51.969Z,19.17
2023-05-04T12:55:19.618Z,19.70
2023-05-04T12:57:47.229Z,20.76
2023-05-04T13:00:16.331Z,18.72
2023-05-04T13:02:44.444Z,18.33
2023-05-04T13:05:13.103Z,19.02
2023-05-04T13:07:42.179Z,19.56
2023-05-04T13:10:10.576Z,19.19
2023-05-04T13:12:38.892Z,19.17
2023-05-04T13:15:07.509Z,19.95
2023-05-04T13:17:35.603Z,20.08
2023-05-04T13:20:05.974Z,19.34
2023-05-04T13:22:34.126Z,19.47
2023-05-04T13:25:03.059Z,19.18
2023-05-04T13:27:30.930Z,20.27
2023-05-04T13:30:00.984Z,19.56
2023-05-04T13:32:28.828Z,20.42
2023-05-04T13:34:56.551Z,19.55
2023-05-04T13:37:24.265Z,19.32
2023-05-04T13:39:52.023Z,19.61
2023-05-04T13:42:21.180Z,19.47
2023-05-04T13:44:48.919Z,19.71
2023-05-04T13:47:17.537Z,19.15
2023-05-04T13:49:45.285Z,19.70
2023-05-04T13:52:13.498Z,20.51
2023-05-04T13:54:41.378Z,21.43
2023-05-04T13:57:09.044Z,20.15
2023-05-04T13:59:38.024Z,19.56
2023-05-04T14:02:05.874Z,20.13
2023-05-04T14:04:33.585Z,20.28
2023-05-04T14:07:01.266Z,19.35
2023-05-04T14:09:29.169Z,20.89
2023-05-04T14:11:56.857Z,21.02
2023-05-04T14:14:24.474Z,19.85
2023-05-04T14:16:53.597Z,19.56
2023-05-04T14:19:21.375Z,20.30
2023-05-04T14:21:49.023Z,18.96
2023-05-04T14:24:16.646Z,18.81
2023-05-04T14:26:44.329Z,19.96
2023-05-04T14:29:11.967Z,20.34
2023-05-04T14:31:39.712Z,18.85
2023-05-04T14:34:08.764Z,19.45
2023-05-04T14:36:36.605Z,19.03
2023-05-04T14:39:04.435Z,19.45
2023-05-04T14:41:33.600Z,18.98
2023-05-04T14:44:01.464Z,19.16
2023-05-04T14:46:29.959Z,19.10
2023-05-04T14:48:57.711Z,19.14
2023-05-04T14:51:33.772Z,19.19
2023-05-04T14:54:02.007Z,19.19
2023-05-04T14:56:29.659Z,19.64
2023-05-04T14:58:57.987Z,18.85
2023-05-04T15:01:26.082Z,19.14
2023-05-04T15:03:53.958Z,20.17
2023-05-04T15:06:21.698Z,19.18
2023-05-04T15:08:51.148Z,19.50
2023-05-04T15:11:19.448Z,18.95
2023-05-04T15:13:47.185Z,19.73
2023-05-04T15:16:18.584Z,19.39
2023-05-04T15:18:46.291Z,18.97
2023-05-04T15:21:14.129Z,18.79
2023-05-04T15:23:41.747Z,20.63
2023-05-04T15:26:10.767Z,20.44
2023-05-04T15:28:38.383Z,19.69
2023-05-04T15:31:07.321Z,19.47
2023-05-04T15:33:35.048Z,19.19
2023-05-04T15:36:07.083Z,19.22
2023-05-04T15:38:34.841Z,18.79
2023-05-04T15:41:02.869Z,18.56
2023-05-04T15:43:32.543Z,18.64
2023-05-04T15:46:00.346Z,19.61
2023-05-04T15:48:28.390Z,19.02
2023-05-04T15:50:56.615Z,18.83
2023-05-04T15:53:24.299Z,20.04
2023-05-04T15:55:52.311Z,20.60
2023-05-04T15:58:20.166Z,20.23
2023-05-04T16:00:49.752Z,19.98
2023-05-04T16:03:17.584Z,19.72
2023-05-04T16:05:45.479Z,18.89
2023-05-04T16:08:13.484Z,19.57
2023-05-04T16:10:41.128Z,19.59
2023-05-04T16:13:10.623Z,19.39
2023-05-04T16:15:39.806Z,19.49
2023-05-04T16:18:08.881Z,19.87
2023-05-04T16:20:36.657Z,19.35
2023-05-04T16:23:04.346Z,19.71
2023-05-04T16:25:32.085Z,19.39
2023-05-04T16:27:59.738Z,18.87
2023-05-04T16:30:34.353Z,18.69
2023-05-04T16:33:02.577Z,19.95
2023-05-04T16:35:32.712Z,19.57
2023-05-04T16:38:00.481Z,19.96
2023-05-04T16:40:28.519Z,18.89
2023-05-04T16:42:56.142Z,18.96
2023-05-04T16:45:25.573Z,19.70
2023-05-04T16:47:53.341Z,19.08
2023-05-04T16:50:21.003Z,19.30
2023-05-04T16:52:50.049Z,18.84
2023-05-04T16:55:17.761Z,18.69
2023-05-04T16:57:45.870Z,18.36
2023-05-04T17:00:14.686Z,18.27
2023-05-04T17:02:42.616Z,17.92
2023-05-04T17:05:11.221Z,18.29
2023-05-04T17:07:40.097Z,17.29
2023-05-04T17:10:10.772Z,17.70
2023-05-04T17:12:38.707Z,17.73
2023-05-04T17:15:07.620Z,17.70
2023-05-04T17:17:35.333Z,17.48
2023-05-04T17:20:03.671Z,16.87
2023-05-04T17:22:31.445Z,16.97
2023-05-04T17:24:59.154Z,17.02
2023-05-04T17:27:28.180Z,17.03
2023-05-04T17:29:55.912Z,17.15
2023-05-04T17:32:23.717Z,17.28
2023-05-04T17:34:51.386Z,17.15
2023-05-04T17:37:19.276Z,16.67
2023-05-04T17:39:47.185Z,17.16
2023-05-04T17:42:15.841Z,16.94
2023-05-04T17:44:44.984Z,17.20
2023-05-04T17:47:12.652Z,16.84
2023-05-04T17:49:40.338Z,17.39
2023-05-04T17:52:08.007Z,16.96
2023-05-04T17:54:35.815Z,17.45
2023-05-04T17:57:03.429Z,16.66
2023-05-04T17:59:31.451Z,16.35
2023-05-04T18:02:00.514Z,17.12
2023-05-04T18:04:31.315Z,16.46
2023-05-04T18:06:59.068Z,17.04
2023-05-04T18:09:26.888Z,16.18
2023-05-04T18:11:54.539Z,16.45
2023-05-04T18:14:22.275Z,16.26
2023-05-04T18:16:49.895Z,16.27
2023-05-04T18:19:23.794Z,15.88
2023-05-04T18:21:51.722Z,16.25
2023-05-04T18:24:19.562Z,16.65
2023-05-04T18:26:48.262Z,15.94
2023-05-04T18:29:19.502Z,16.62
2023-05-04T18:31:47.679Z,16.87
2023-05-04T18:34:15.496Z,15.00
2023-05-04T18:36:44.901Z,15.06
2023-05-04T18:39:13.550Z,15.14
2023-05-04T18:41:41.431Z,15.07
2023-05-04T18:44:09.979Z,15.43
2023-05-04T18:46:37.744Z,15.38
2023-05-04T18:49:05.658Z,15.37
2023-05-04T18:51:33.286Z,14.87
2023-05-04T18:54:02.323Z,14.69
2023-05-04T18:56:30.069Z,14.78
2023-05-04T18:58:57.694Z,15.03
2023-05-04T19:01:26.400Z,15.70
2023-05-04T19:03:54.107Z,14.36
2023-05-04T19:06:21.794Z,14.48
2023-05-04T19:08:49.464Z,14.73
2023-05-04T19:11:18.608Z,14.26
2023-05-04T19:13:46.190Z,15.08
2023-05-04T19:16:14.151Z,14.63
2023-05-04T19:18:43.170Z,14.45
2023-05-04T19:21:10.859Z,14.44
2023-05-04T19:23:38.568Z,14.16
2023-05-04T19:26:06.403Z,14.20
2023-05-04T19:28:35.502Z,13.91
2023-05-04T19:31:03.140Z,13.89
2023-05-04T19:33:44.557Z,14.38
2023-05-04T19:36:15.270Z,14.10
2023-05-04T19:38:42.929Z,14.36
2023-05-04T19:41:10.646Z,14.25
2023-05-04T19:43:39.636Z,14.31
2023-05-04T19:46:08.074Z,14.09
2023-05-04T19:48:35.759Z,14.92
2023-05-04T19:51:04.824Z,14.17
2023-05-04T19:53:32.463Z,14.20
2023-05-04T19:56:00.222Z,14.32
2023-05-04T19:58:28.332Z,13.75
2023-05-04T20:00:57.814Z,13.91
2023-05-04T20:03:25.730Z,14.56
2023-05-04T20:05:53.996Z,14.53
2023-05-04T20:08:21.708Z,14.96
2023-05-04T20:10:49.339Z,14.28
2023-05-04T20:13:17.073Z,13.45
2023-05-04T20:15:44.976Z,13.77
2023-05-04T20:18:14.049Z,14.37
2023-05-04T20:20:41.790Z,13.70
2023-05-04T20:23:09.487Z,13.78
2023-05-04T20:25:37.211Z,14.05
2023-05-04T20:28:05.105Z,13.92
2023-05-04T20:30:32.805Z,14.12
2023-05-04T20:33:00.515Z,14.38
2023-05-04T20:35:29.621Z,13.83
2023-05-04T20:37:57.915Z,13.79
2023-05-04T20:40:25.794Z,13.51
2023-05-04T20:42:53.588Z,13.67
2023-05-04T20:45:21.430Z,14.16
2023-05-04T20:47:49.342Z,13.33
2023-05-04T20:50:17.915Z,13.47
2023-05-04T20:52:47.019Z,12.90
2023-05-04T20:55:15.188Z,13.88
2023-05-04T20:57:43.052Z,13.62
2023-05-04T21:00:12.246Z,13.51
2023-05-04T21:02:40.066Z,13.88
2023-05-04T21:05:08.691Z,13.43
2023-05-04T21:07:36.336Z,13.40
2023-05-04T21:10:06.313Z,13.73
2023-05-04T21:12:34.405Z,12.95
2023-05-04T21:15:02.040Z,13.08
2023-05-04T21:17:29.671Z,13.21
2023-05-04T21:19:57.454Z,12.50
2023-05-04T21:22:25.192Z,12.79
2023-05-04T21:24:52.851Z,13.06
2023-05-04T21:27:21.876Z,12.95
2023-05-04T21:29:49.502Z,13.01
2023-05-04T21:32:17.151Z,13.01
2023-05-04T21:34:44.833Z,13.01
2023-05-04T21:37:12.458Z,13.31
2023-05-04T21:39:40.143Z,12.62
2023-05-04T21:42:07.820Z,13.17
2023-05-04T21:44:36.824Z,13.48
2023-05-04T21:47:04.587Z,13.27
2023-05-04T21:49:32.243Z,13.04
2023-05-04T21:51:59.918Z,12.93
2023-05-04T21:54:27.538Z,13.29
2023-05-04T21:56:55.345Z,12.98
2023-05-04T21:59:22.963Z,13.34
2023-05-04T22:01:51.885Z,13.29
2023-05-04T22:04:19.660Z,12.88
2023-05-04T22:06:48.185Z,12.61
2023-05-04T22:09:15.914Z,12.72
2023-05-04T22:11:43.554Z,12.72
2023-05-04T22:14:11.170Z,13.72
2023-05-04T22:16:38.908Z,13.32
2023-05-04T22:19:07.917Z,12.82
2023-05-04T22:21:36.840Z,13.21
2023-05-04T22:24:06.719Z,13.26
2023-05-04T22:26:34.335Z,13.15
2023-05-04T22:29:01.996Z,12.43
2023-05-04T22:31:29.683Z,12.93
2023-05-04T22:33:57.330Z,12.33
2023-05-04T22:36:26.604Z,12.41
2023-05-04T22:38:54.377Z,12.48
2023-05-04T22:41:22.640Z,12.63
2023-05-04T22:43:50.595Z,12.72
2023-05-04T22:46:18.803Z,12.92
2023-05-04T22:48:47.548Z,12.74
2023-05-04T22:51:15.564Z,12.71
2023-05-04T22:53:44.882Z,12.77
2023-05-04T22:56:12.660Z,12.85
2023-05-04T22:58:40.740Z,12.38
2023-05-04T23:01:10.521Z,12.23
2023-05-04T23:03:38.945Z,12.69
2023-05-04T23:06:08.588Z,12.24
2023-05-04T23:08:36.443Z,12.43
2023-05-04T23:11:14.152Z,11.98
2023-05-04T23:13:41.890Z,12.32
2023-05-04T23:16:09.566Z,12.17
2023-05-04T23:18:37.217Z,12.18
2023-05-04T23:21:05.035Z,12.44
2023-05-04T23:23:32.657Z,11.79
2023-05-04T23:26:00.326Z,12.09
2023-05-04T23:28:29.289Z,11.95
2023-05-04T23:30:56.933Z,11.79
2023-05-04T23:33:24.669Z,11.90
2023-05-04T23:35:55.372Z,12.06
2023-05-04T23:38:23.734Z,11.86
2023-05-04T23:40:52.441Z,11.80
2023-05-04T23:43:20.315Z,11.71
2023-05-04T23:45:49.335Z,11.74
2023-05-04T23:48:16.992Z,11.72
2023-05-04T23:50:53.927Z,11.81
2023-05-04T23:53:21.668Z,11.54
2023-05-04T23:55:57.668Z,11.63
2023-05-04T23:58:25.750Z,11.95
